createdAt,value
2018-03-31T00:02:57.048Z,95.00
2018-03-31T00:06:59.126Z,94.70
2018-03-31T00:11:01.160Z,94.70
2018-03-31T00:15:03.975Z,94.20
2018-03-31T00:19:08.717Z,94.20
2018-03-31T00:23:10.776Z,94.20
2018-03-31T00:27:12.808Z,94.30
2018-03-31T00:31:15.191Z,94.60
2018-03-31T00:35:17.232Z,94.80
2018-03-31T00:39:19.336Z,94.80
2018-03-31T00:43:21.420Z,95.00
2018-03-31T00:47:23.469Z,95.20
2018-03-31T00:51:28.544Z,95.60
2018-03-31T00:55:30.620Z,95.70
2018-03-31T00:59:32.663Z,96.00
2018-03-31T01:03:49.740Z,96.90
2018-03-31T01:07:51.760Z,96.90
2018-03-31T01:11:54.165Z,96.90
2018-03-31T01:15:56.187Z,96.90
2018-03-31T01:19:58.265Z,97.10
2018-03-31T01:24:00.298Z,97.00
2018-03-31T01:28:03.126Z,97.00
2018-03-31T01:32:05.146Z,97.00
2018-03-31T01:36:07.233Z,96.90
2018-03-31T01:40:09.253Z,97.30
2018-03-31T01:44:11.334Z,97.30
2018-03-31T01:48:13.379Z,97.40
2018-03-31T01:52:20.880Z,97.70
2018-03-31T01:56:22.940Z,97.60
2018-03-31T02:00:25.001Z,97.90
2018-03-31T02:04:27.030Z,97.80
2018-03-31T02:08:29.104Z,97.70
2018-03-31T02:12:31.169Z,97.50
2018-03-31T02:16:33.993Z,97.60
2018-03-31T02:20:42.699Z,97.80
2018-03-31T02:24:44.840Z,97.80
2018-03-31T02:28:46.868Z,97.90
2018-03-31T02:32:48.913Z,98.20
2018-03-31T02:36:54.370Z,98.00
2018-03-31T02:40:56.496Z,97.60
2018-03-31T02:44:58.575Z,97.90
2018-03-31T02:49:00.627Z,98.00
2018-03-31T02:53:02.672Z,97.90
2018-03-31T02:57:05.989Z,98.20
2018-03-31T03:01:08.788Z,98.30
2018-03-31T03:05:10.848Z,98.30
2018-03-31T03:09:12.880Z,98.70
2018-03-31T03:13:14.936Z,98.30
2018-03-31T03:17:17.020Z,98.50
2018-03-31T03:21:19.080Z,98.50
2018-03-31T03:25:21.113Z,98.70
2018-03-31T03:29:23.184Z,98.20
2018-03-31T03:33:25.215Z,98.00
2018-03-31T03:37:27.281Z,97.60
2018-03-31T03:41:29.334Z,98.10
2018-03-31T03:45:31.529Z,98.60
2018-03-31T03:49:33.556Z,98.90
2018-03-31T03:53:35.620Z,98.50
2018-03-31T03:57:43.435Z,98.70
2018-03-31T04:01:45.625Z,98.60
2018-03-31T04:05:47.664Z,98.70
2018-03-31T04:09:50.779Z,98.60
2018-03-31T04:13:54.579Z,98.90
2018-03-31T04:17:56.657Z,98.90
2018-03-31T04:21:58.731Z,99.20
2018-03-31T04:26:00.873Z,99.30
2018-03-31T04:30:02.904Z,99.90
2018-03-31T04:34:05.735Z,99.10
2018-03-31T04:38:08.521Z,99.30
2018-03-31T04:42:10.575Z,99.30
2018-03-31T04:46:12.672Z,99.60
2018-03-31T04:50:14.728Z,99.90
2018-03-31T04:54:16.755Z,99.90
2018-03-31T04:58:18.813Z,99.60
2018-03-31T05:02:21.620Z,99.90
2018-03-31T05:06:24.451Z,99.80
2018-03-31T05:10:26.484Z,99.80
2018-03-31T05:14:28.532Z,99.00
2018-03-31T05:18:30.563Z,99.70
2018-03-31T05:22:32.924Z,99.90
2018-03-31T05:26:39.380Z,99.90
2018-03-31T05:30:41.452Z,99.90
2018-03-31T05:34:43.486Z,99.90
2018-03-31T05:38:45.564Z,99.20
2018-03-31T05:42:49.508Z,99.20
2018-03-31T05:46:51.624Z,99.70
2018-03-31T05:50:53.650Z,99.60
2018-03-31T05:54:55.711Z,99.40
2018-03-31T05:58:57.728Z,98.70
2018-03-31T06:03:00.945Z,99.00
2018-03-31T06:07:03.736Z,99.10
2018-03-31T06:11:05.897Z,99.10
2018-03-31T06:15:07.923Z,99.10
2018-03-31T06:19:11.058Z,98.30
2018-03-31T06:23:13.853Z,99.00
2018-03-31T06:27:16.009Z,99.60
2018-03-31T06:31:18.032Z,98.90
2018-03-31T06:35:21.505Z,99.10
2018-03-31T06:39:24.302Z,98.40
2018-03-31T06:43:26.448Z,98.40
2018-03-31T06:47:28.501Z,98.00
2018-03-31T06:51:30.645Z,97.30
2018-03-31T06:55:33.639Z,97.10
2018-03-31T06:59:36.941Z,96.70
2018-03-31T07:03:39.161Z,95.90
2018-03-31T07:07:41.249Z,95.30
2018-03-31T07:11:43.282Z,95.60
2018-03-31T07:15:45.340Z,95.70
2018-03-31T07:19:48.307Z,94.80
2018-03-31T07:23:50.393Z,93.90
2018-03-31T07:27:52.440Z,94.30
2018-03-31T07:31:56.667Z,92.60
2018-03-31T07:35:58.691Z,92.60
2018-03-31T07:40:01.057Z,91.80
2018-03-31T07:44:03.096Z,90.70
2018-03-31T07:48:05.164Z,90.40
2018-03-31T07:52:07.988Z,88.20
2018-03-31T07:56:10.086Z,88.20
2018-03-31T08:00:12.159Z,88.20
2018-03-31T08:04:14.980Z,82.40
2018-03-31T08:08:17.033Z,82.30
2018-03-31T08:12:19.175Z,78.30
2018-03-31T08:16:21.964Z,63.80
2018-03-31T08:20:24.019Z,63.60
2018-03-31T08:24:26.071Z,62.60
2018-03-31T08:28:28.918Z,61.60
2018-03-31T08:32:35.619Z,61.40
2018-03-31T08:36:38.641Z,58.20
2018-03-31T08:40:40.695Z,57.20
2018-03-31T08:44:42.769Z,55.70
2018-03-31T08:48:48.380Z,54.70
2018-03-31T08:52:50.457Z,53.30
2018-03-31T08:56:52.496Z,49.10
2018-03-31T09:00:54.554Z,46.30
2018-03-31T09:04:56.651Z,44.10
2018-03-31T09:08:59.148Z,41.50
2018-03-31T09:13:01.193Z,38.20
2018-03-31T09:17:04.326Z,34.70
2018-03-31T09:21:07.133Z,33.90
2018-03-31T09:25:09.200Z,33.80
2018-03-31T09:29:11.625Z,33.80
2018-03-31T09:33:13.697Z,32.50
2018-03-31T09:37:15.741Z,30.70
2018-03-31T09:41:26.040Z,29.20
2018-03-31T09:45:37.354Z,28.00
2018-03-31T09:49:39.493Z,28.00
2018-03-31T09:53:48.080Z,30.50
2018-03-31T09:57:50.981Z,32.30
2018-03-31T10:01:53.025Z,32.20
2018-03-31T10:05:56.107Z,29.50
2018-03-31T10:09:59.248Z,29.70
2018-03-31T10:14:04.493Z,29.70
2018-03-31T10:18:06.529Z,30.00
2018-03-31T10:22:10.550Z,30.60
2018-03-31T10:26:12.600Z,27.00
2018-03-31T10:30:14.781Z,29.10
2018-03-31T10:34:20.792Z,27.70
2018-03-31T10:38:23.829Z,28.70
2018-03-31T10:42:31.815Z,29.10
2018-03-31T10:46:34.880Z,29.10
2018-03-31T10:50:37.680Z,29.50
2018-03-31T10:54:40.024Z,29.50
2018-03-31T10:58:42.108Z,29.70
2018-03-31T11:02:44.250Z,30.80
2018-03-31T11:06:47.065Z,33.60
2018-03-31T11:10:49.957Z,32.80
2018-03-31T11:14:51.994Z,32.20
2018-03-31T11:18:54.052Z,34.50
2018-03-31T11:22:56.083Z,34.40
2018-03-31T11:26:58.176Z,34.80
2018-03-31T11:31:00.227Z,36.20
2018-03-31T11:35:03.206Z,40.50
2018-03-31T11:39:05.997Z,40.30
2018-03-31T11:43:08.065Z,40.10
2018-03-31T11:47:10.113Z,39.50
2018-03-31T11:51:13.040Z,39.70
2018-03-31T11:55:16.025Z,39.70
2018-03-31T11:59:18.089Z,37.00
2018-03-31T12:03:20.152Z,38.90
2018-03-31T12:07:27.154Z,42.10
2018-03-31T12:11:30.949Z,41.80
2018-03-31T12:15:33.132Z,41.70
2018-03-31T12:19:35.177Z,42.40
2018-03-31T12:23:37.304Z,39.50
2018-03-31T12:27:45.325Z,40.70
2018-03-31T12:31:47.419Z,41.10
2018-03-31T12:35:50.235Z,41.00
2018-03-31T12:39:54.072Z,39.80
2018-03-31T12:43:58.072Z,39.80
2018-03-31T12:48:00.132Z,42.70
2018-03-31T12:52:02.366Z,46.30
2018-03-31T12:56:04.440Z,44.90
2018-03-31T13:00:06.469Z,44.30
2018-03-31T13:04:09.299Z,44.90
2018-03-31T13:08:12.150Z,46.80
2018-03-31T13:12:14.373Z,46.60
2018-03-31T13:16:16.923Z,45.40
2018-03-31T13:20:20.155Z,47.30
2018-03-31T13:24:24.905Z,46.50
2018-03-31T13:28:27.996Z,45.70
2018-03-31T13:32:32.108Z,46.00
2018-03-31T13:36:35.208Z,46.10
2018-03-31T13:40:40.890Z,47.60
2018-03-31T13:44:43.035Z,49.70
2018-03-31T13:48:45.111Z,46.70
2018-03-31T13:52:48.100Z,48.20
2018-03-31T13:56:50.135Z,48.20
2018-03-31T14:00:53.305Z,48.00
2018-03-31T14:04:55.345Z,47.60
2018-03-31T14:08:57.411Z,50.30
2018-03-31T14:12:59.439Z,49.10
2018-03-31T14:17:01.579Z,48.20
2018-03-31T14:21:03.612Z,47.90
2018-03-31T14:25:05.764Z,47.30
2018-03-31T14:29:08.564Z,49.50
2018-03-31T14:33:10.639Z,49.40
2018-03-31T14:37:13.691Z,49.30
2018-03-31T14:41:16.606Z,48.10
2018-03-31T14:45:19.401Z,47.80
2018-03-31T14:49:21.456Z,47.80
2018-03-31T14:53:23.516Z,48.80
2018-03-31T14:57:27.661Z,47.60
2018-03-31T15:01:29.705Z,46.20
2018-03-31T15:05:31.761Z,47.00
2018-03-31T15:09:34.734Z,47.40
2018-03-31T15:13:36.812Z,45.00
2018-03-31T15:17:38.845Z,47.40
2018-03-31T15:21:46.668Z,47.80
2018-03-31T15:25:49.458Z,47.60
2018-03-31T15:29:51.516Z,47.50
2018-03-31T15:33:53.551Z,48.00
2018-03-31T15:37:57.523Z,48.50
2018-03-31T15:42:00.518Z,48.30
2018-03-31T15:46:02.607Z,49.20
2018-03-31T15:50:04.646Z,48.70
2018-03-31T15:54:06.904Z,48.30
2018-03-31T15:58:08.942Z,48.40
2018-03-31T16:02:13.028Z,48.30
2018-03-31T16:06:15.065Z,48.40
2018-03-31T16:10:17.132Z,48.30
2018-03-31T16:14:19.948Z,48.20
2018-03-31T16:18:22.002Z,47.60
2018-03-31T16:22:24.035Z,49.10
2018-03-31T16:26:26.860Z,48.00
2018-03-31T16:30:29.656Z,49.30
2018-03-31T16:34:31.768Z,49.20
2018-03-31T16:38:36.541Z,51.70
2018-03-31T16:42:39.364Z,51.70
2018-03-31T16:46:42.169Z,53.60
2018-03-31T16:50:44.334Z,53.70
2018-03-31T16:54:46.360Z,52.40
2018-03-31T16:58:49.212Z,53.50
2018-03-31T17:02:51.236Z,53.50
2018-03-31T17:06:53.308Z,52.70
2018-03-31T17:10:55.337Z,52.90
2018-03-31T17:14:57.407Z,52.80
2018-03-31T17:18:59.428Z,53.40
2018-03-31T17:23:01.489Z,54.40
2018-03-31T17:27:03.550Z,54.30
2018-03-31T17:31:06.369Z,54.70
2018-03-31T17:35:08.449Z,54.60
2018-03-31T17:39:11.305Z,55.30
2018-03-31T17:43:13.346Z,55.30
2018-03-31T17:47:16.269Z,55.80
2018-03-31T17:51:19.104Z,56.70
2018-03-31T17:55:21.229Z,56.60
2018-03-31T17:59:23.266Z,56.30
2018-03-31T18:03:25.655Z,56.40
2018-03-31T18:07:27.689Z,56.60
2018-03-31T18:11:30.692Z,56.90
2018-03-31T18:15:33.498Z,58.10
2018-03-31T18:19:37.445Z,58.10
2018-03-31T18:23:40.228Z,58.30
2018-03-31T18:27:42.282Z,58.30
2018-03-31T18:31:44.316Z,59.00
2018-03-31T18:35:48.534Z,58.70
2018-03-31T18:39:50.590Z,59.40
2018-03-31T18:43:52.650Z,60.20
2018-03-31T18:47:54.681Z,60.50
2018-03-31T18:51:56.738Z,62.00
2018-03-31T18:55:58.832Z,62.90
2018-03-31T19:00:00.899Z,64.60
2018-03-31T19:04:02.938Z,65.60
2018-03-31T19:08:05.001Z,65.00
2018-03-31T19:12:07.032Z,65.70
2018-03-31T19:16:09.180Z,66.80
2018-03-31T19:20:11.229Z,69.10
2018-03-31T19:24:14.074Z,68.50
2018-03-31T19:28:16.274Z,68.40
2018-03-31T19:32:18.449Z,70.30
2018-03-31T19:36:20.503Z,70.00
2018-03-31T19:40:22.560Z,69.70
2018-03-31T19:44:24.604Z,71.20
2018-03-31T19:48:29.765Z,70.20
2018-03-31T19:52:32.783Z,70.00
2018-03-31T19:56:36.413Z,71.80
2018-03-31T20:00:38.456Z,73.00
2018-03-31T20:04:46.645Z,72.40
2018-03-31T20:08:48.784Z,73.10
2018-03-31T20:12:51.210Z,72.90
2018-03-31T20:16:54.208Z,72.90
2018-03-31T20:20:57.064Z,73.40
2018-03-31T20:25:01.198Z,73.40
2018-03-31T20:29:05.231Z,72.80
2018-03-31T20:33:09.245Z,73.80
2018-03-31T20:37:12.310Z,74.00
2018-03-31T20:41:16.348Z,75.30
2018-03-31T20:45:23.252Z,75.90
2018-03-31T20:49:25.315Z,76.50
2018-03-31T20:53:28.196Z,75.50
2018-03-31T20:57:30.463Z,75.50
2018-03-31T21:01:32.519Z,76.30
2018-03-31T21:05:35.309Z,76.90
2018-03-31T21:09:37.372Z,76.90
2018-03-31T21:13:39.400Z,75.70
2018-03-31T21:17:48.609Z,76.40
2018-03-31T21:21:50.690Z,75.60
2018-03-31T21:25:52.894Z,75.90
2018-03-31T21:29:54.891Z,76.70
2018-03-31T21:33:57.059Z,77.20
2018-03-31T21:38:03.314Z,76.60
2018-03-31T21:42:05.369Z,77.50
2018-03-31T21:46:08.160Z,77.00
2018-03-31T21:50:10.204Z,77.00
2018-03-31T21:54:12.227Z,75.90
2018-03-31T21:58:14.275Z,75.70
2018-03-31T22:02:16.304Z,75.30
2018-03-31T22:06:18.364Z,76.30
2018-03-31T22:10:21.328Z,75.70
2018-03-31T22:14:29.006Z,75.70
2018-03-31T22:18:31.796Z,78.90
2018-03-31T22:22:33.868Z,78.90
2018-03-31T22:26:35.976Z,79.80
2018-03-31T22:30:38.050Z,80.60
2018-03-31T22:34:40.092Z,81.10
2018-03-31T22:38:42.167Z,81.60
2018-03-31T22:42:44.201Z,82.50
2018-03-31T22:46:47.016Z,82.80
2018-03-31T22:50:49.036Z,82.70
2018-03-31T22:54:53.125Z,83.40
2018-03-31T22:58:55.917Z,84.50
2018-03-31T23:02:57.965Z,84.40
2018-03-31T23:07:00.001Z,84.60
2018-03-31T23:11:02.847Z,85.90
2018-03-31T23:15:06.845Z,85.80
2018-03-31T23:19:08.936Z,86.50
2018-03-31T23:23:11.032Z,86.80
2018-03-31T23:27:13.100Z,87.10
2018-03-31T23:31:15.117Z,87.40
2018-03-31T23:35:17.652Z,87.30
2018-03-31T23:39:19.749Z,87.50
2018-03-31T23:43:24.508Z,87.80
2018-03-31T23:47:27.296Z,89.10
2018-03-31T23:51:29.363Z,89.10
2018-03-31T23:55:31.383Z,90.00
2018-03-31T23:59:33.432Z,89.90
